Mount Saint Joseph, Ohio
Current Conditions -  °F | °C
As of 6:38 AM on Thursday 27 Nov 2014 (Local Time) from KI69 Reporting Station
Overcast Overcast  
Wind Chill: 26°   Ceiling: 1300
Heat Index: 32°   Visibility: 10mi
Dew Point: 28°   Wind: 6mph
Humidity: 87%   Direction: 330°NNW
Pressure: 30.15"   Gusts: NA
Location:  39.1°N, 84.65°W
Report Text: KI69 271138Z AUTO 33005KT 10SM OVC013 00/M02 A3015 RMK AO1
Loading
Personal Weather Stations






























Interactive Weather Map New forecast layout! Learn more

10-Day Weather Forecast

Advertisements
Track Severe Weather on mobile